Time;durP1;ratioP1;P1;durP2;ratioP2;P2;SDS_P1;SDS_P2;PMS_P1;PMS_P2;Temp;Humidity;BMP_temperature;BMP_pressure;BME280_temperature;BME280_humidity;BME280_pressure;Samples;Min_cycle;Max_cycle;Signal;HPM_P1;HPM_P2
2023/01/12 00:02:21;;;;;;;;;;;26.10;97.10;;;;;;5055748;28;19916;-71
2023/01/12 00:04:47;;;;;;;;;;;26.20;97.00;;;;;;5054741;28;19908;-73
2023/01/12 00:07:14;;;;;;;;;;;26.30;97.10;;;;;;5055197;28;19909;-73
2023/01/12 00:09:41;;;;;;;;;;;26.30;97.10;;;;;;5054834;28;19908;-70
2023/01/12 00:12:10;;;;;;;;;;;26.20;96.80;;;;;;5053885;28;19909;-73
2023/01/12 00:14:37;;;;;;;;;;;26.10;97.10;;;;;;5054083;28;20011;-73
2023/01/12 00:17:05;;;;;;;;;;;26.00;97.60;;;;;;5052664;28;19912;-71
2023/01/12 00:19:32;;;;;;;;;;;26.10;97.60;;;;;;5053879;28;19963;-72
2023/01/12 00:22:13;;;;;;;;;;;26.00;97.80;;;;;;5053645;28;19909;-74
2023/01/12 00:24:41;;;;;;;;;;;26.10;97.80;;;;;;5053642;28;19919;-73
2023/01/12 00:27:09;;;;;;;;;;;26.00;98.30;;;;;;5064562;28;19909;-74
2023/01/12 00:29:36;;;;;;;;;;;25.90;98.60;;;;;;5053566;28;20324;-75
2023/01/12 00:32:04;;;;;;;;;;;26.10;98.20;;;;;;5054226;28;19912;-70
2023/01/12 00:34:30;;;;;;;;;;;26.10;98.40;;;;;;5052759;28;19913;-69
2023/01/12 00:36:58;;;;;;;;;;;25.90;98.40;;;;;;5053116;28;19943;-75
2023/01/12 00:39:25;;;;;;;;;;;25.80;98.80;;;;;;5053509;28;19920;-70
2023/01/12 00:47:21;;;;;;;;;;;25.70;98.90;;;;;;5070346;28;19966;-73
2023/01/12 00:49:48;;;;;;;;;;;25.90;98.80;;;;;;5059945;28;19909;-68
2023/01/12 00:52:16;;;;;;;;;;;26.00;98.60;;;;;;5067792;28;19919;-73
2023/01/12 00:54:43;;;;;;;;;;;25.90;98.50;;;;;;5061667;28;20353;-75
2023/01/12 00:57:12;;;;;;;;;;;26.00;98.30;;;;;;5060346;28;20032;-73
2023/01/12 00:59:38;;;;;;;;;;;25.90;98.40;;;;;;5057541;28;19912;-69
2023/01/12 01:02:05;;;;;;;;;;;26.00;98.30;;;;;;5065975;28;19912;-70
2023/01/12 01:04:33;;;;;;;;;;;26.00;98.10;;;;;;5057072;28;20258;-75
2023/01/12 01:07:01;;;;;;;;;;;25.90;98.30;;;;;;5062841;28;20357;-69
2023/01/12 01:09:28;;;;;;;;;;;26.00;97.90;;;;;;5059649;28;20012;-73
2023/01/12 01:11:54;;;;;;;;;;;26.10;97.90;;;;;;5059991;28;19927;-74
2023/01/12 01:14:21;;;;;;;;;;;26.00;98.10;;;;;;5060792;28;19955;-76
2023/01/12 01:16:48;;;;;;;;;;;25.90;98.40;;;;;;5056880;28;19921;-71
2023/01/12 01:19:15;;;;;;;;;;;26.20;98.30;;;;;;5063612;28;20266;-72
2023/01/12 01:21:41;;;;;;;;;;;26.30;97.90;;;;;;5063702;28;19927;-68
2023/01/12 01:24:09;;;;;;;;;;;26.40;97.50;;;;;;5057890;28;19913;-72
2023/01/12 01:26:36;;;;;;;;;;;26.20;97.80;;;;;;5067994;28;19913;-69
2023/01/12 01:29:03;;;;;;;;;;;26.20;97.70;;;;;;5069173;28;19969;-74
2023/01/12 01:31:29;;;;;;;;;;;26.30;97.20;;;;;;5062452;28;19913;-69
2023/01/12 01:33:56;;;;;;;;;;;26.30;97.50;;;;;;5069510;28;19912;-74
2023/01/12 01:36:22;;;;;;;;;;;26.50;96.80;;;;;;5059533;28;20057;-74
2023/01/12 01:38:49;;;;;;;;;;;26.60;96.90;;;;;;5063892;28;20269;-77
2023/01/12 01:41:18;;;;;;;;;;;26.80;96.50;;;;;;5061479;28;19920;-76
2023/01/12 01:43:48;;;;;;;;;;;27.00;96.30;;;;;;5068443;28;19913;-69
2023/01/12 01:46:16;;;;;;;;;;;26.90;96.60;;;;;;5059272;28;20320;-76
2023/01/12 01:48:43;;;;;;;;;;;27.10;96.30;;;;;;5056148;28;19931;-76
2023/01/12 01:51:13;;;;;;;;;;;27.40;96.20;;;;;;5056122;28;19909;-76
2023/01/12 01:53:41;;;;;;;;;;;27.70;95.60;;;;;;5056119;28;20255;-75
2023/01/12 01:56:10;;;;;;;;;;;27.90;95.40;;;;;;5056340;28;19916;-75
2023/01/12 01:58:42;;;;;;;;;;;28.10;95.20;;;;;;5056571;28;19944;-75
2023/01/12 02:01:10;;;;;;;;;;;28.30;95.10;;;;;;5056479;28;20011;-76
2023/01/12 02:03:37;;;;;;;;;;;28.30;94.40;;;;;;5066969;28;19913;-69
2023/01/12 02:06:05;;;;;;;;;;;28.10;94.40;;;;;;5070886;28;20277;-72
2023/01/12 02:08:39;;;;;;;;;;;28.00;94.70;;;;;;5061443;28;19981;-70
2023/01/12 02:16:19;;;;;;;;;;;28.10;95.20;;;;;;5060882;28;20281;-71
2023/01/12 02:16:39;;;;;;;;;;;28.00;94.00;;;;;;5063011;28;20031;-76
2023/01/12 02:19:24;;;;;;;;;;;28.00;94.20;;;;;;5064662;28;19913;-73
2023/01/12 02:22:18;;;;;;;;;;;28.20;93.90;;;;;;5062964;28;19912;-69
2023/01/12 02:24:47;;;;;;;;;;;28.50;93.40;;;;;;5060403;28;19913;-74
2023/01/12 02:27:17;;;;;;;;;;;28.40;93.80;;;;;;5070594;28;19919;-74
2023/01/12 02:30:02;;;;;;;;;;;28.60;92.90;;;;;;5067159;28;20266;-74
2023/01/12 02:32:36;;;;;;;;;;;28.90;92.80;;;;;;5075112;28;20003;-73
2023/01/12 02:35:12;;;;;;;;;;;28.80;92.90;;;;;;5075213;28;19927;-72
2023/01/12 02:37:42;;;;;;;;;;;28.60;92.60;;;;;;5056759;28;19975;-75
2023/01/12 02:40:23;;;;;;;;;;;28.60;92.60;;;;;;5054114;28;19915;-70
2023/01/12 02:42:59;;;;;;;;;;;28.80;93.30;;;;;;5054929;28;20319;-75
2023/01/12 02:45:26;;;;;;;;;;;28.90;92.60;;;;;;5055065;28;20411;-70
2023/01/12 02:47:52;;;;;;;;;;;29.10;91.90;;;;;;5054947;28;19913;-75
2023/01/12 02:50:23;;;;;;;;;;;29.00;92.70;;;;;;5055191;28;19958;-75
2023/01/12 02:52:54;;;;;;;;;;;29.10;92.30;;;;;;5055562;28;19915;-72
2023/01/12 02:55:22;;;;;;;;;;;29.30;92.10;;;;;;5054895;28;19920;-73
2023/01/12 02:57:49;;;;;;;;;;;29.60;91.90;;;;;;5054820;28;20008;-69
2023/01/12 03:00:17;;;;;;;;;;;30.00;91.20;;;;;;5063726;28;20395;-71
2023/01/12 03:02:43;;;;;;;;;;;30.40;90.50;;;;;;5075007;28;19915;-73
2023/01/12 03:05:10;;;;;;;;;;;30.40;90.10;;;;;;5067201;28;20019;-74
2023/01/12 03:07:37;;;;;;;;;;;30.50;90.30;;;;;;5071703;28;19951;-72
2023/01/12 03:10:10;;;;;;;;;;;30.20;90.70;;;;;;5069366;28;20016;-72
2023/01/12 03:12:37;;;;;;;;;;;30.90;89.90;;;;;;5081631;28;19958;-68
2023/01/12 03:15:07;;;;;;;;;;;31.30;88.90;;;;;;5057112;28;19916;-68
2023/01/12 03:17:39;;;;;;;;;;;31.80;86.70;;;;;;5078437;28;19936;-68
2023/01/12 03:20:09;;;;;;;;;;;31.70;86.30;;;;;;5094258;28;19908;-73
2023/01/12 03:22:36;;;;;;;;;;;31.90;86.40;;;;;;5083064;28;19915;-71
2023/01/12 03:25:08;;;;;;;;;;;31.70;85.20;;;;;;5086723;28;20011;-72
2023/01/12 03:27:42;;;;;;;;;;;32.60;84.10;;;;;;5076981;28;20303;-68
2023/01/12 03:30:24;;;;;;;;;;;33.20;82.70;;;;;;5056463;28;19940;-71
2023/01/12 03:32:51;;;;;;;;;;;33.70;80.10;;;;;;5054062;28;20526;-71
2023/01/12 03:35:18;;;;;;;;;;;33.80;81.80;;;;;;5065034;28;20361;-74
2023/01/12 03:37:51;;;;;;;;;;;34.80;81.70;;;;;;5073681;28;19928;-77
2023/01/12 03:40:20;;;;;;;;;;;34.80;78.20;;;;;;5075106;28;19913;-73
2023/01/12 03:42:52;;;;;;;;;;;35.10;77.80;;;;;;5079501;28;20010;-72
2023/01/12 03:45:28;;;;;;;;;;;36.20;77.40;;;;;;5067601;28;20282;-73
2023/01/12 03:47:56;;;;;;;;;;;36.60;74.80;;;;;;5071964;28;19935;-71
2023/01/12 03:50:26;;;;;;;;;;;37.50;73.50;;;;;;5072054;28;19917;-71
2023/01/12 03:52:54;;;;;;;;;;;37.00;73.50;;;;;;5053705;28;20034;-71
2023/01/12 03:55:22;;;;;;;;;;;36.40;73.60;;;;;;5060464;28;19921;-73
2023/01/12 03:57:50;;;;;;;;;;;35.70;74.90;;;;;;5083974;28;19916;-72
2023/01/12 04:00:18;;;;;;;;;;;35.10;74.60;;;;;;5074718;28;19912;-71
2023/01/12 04:02:46;;;;;;;;;;;34.90;76.10;;;;;;5057280;28;19916;-73
2023/01/12 04:05:13;;;;;;;;;;;35.80;76.00;;;;;;5080893;28;20377;-71
2023/01/12 04:07:40;;;;;;;;;;;35.90;75.10;;;;;;5077349;28;19919;-72
2023/01/12 04:10:07;;;;;;;;;;;36.50;73.00;;;;;;5082312;28;19909;-72
2023/01/12 04:12:34;;;;;;;;;;;36.50;72.90;;;;;;5073266;28;19909;-73
2023/01/12 04:15:00;;;;;;;;;;;37.00;71.00;;;;;;5073111;28;19915;-73
2023/01/12 04:17:28;;;;;;;;;;;36.30;71.60;;;;;;5074810;28;19916;-73
2023/01/12 04:19:55;;;;;;;;;;;35.30;71.80;;;;;;5078905;28;19951;-74
2023/01/12 04:25:06;;;;;;;;;;;34.20;75.00;;;;;;5069483;28;19959;-73
2023/01/12 04:27:32;;;;;;;;;;;34.70;73.70;;;;;;5072097;28;19917;-73
2023/01/12 04:29:59;;;;;;;;;;;34.20;73.80;;;;;;5074539;28;19911;-74
2023/01/12 04:32:26;;;;;;;;;;;34.30;73.80;;;;;;5067322;28;20369;-72
2023/01/12 04:34:52;;;;;;;;;;;34.30;75.10;;;;;;5066826;28;20290;-73
2023/01/12 04:37:20;;;;;;;;;;;34.50;73.20;;;;;;5062290;28;20447;-73
2023/01/12 04:39:46;;;;;;;;;;;35.30;71.30;;;;;;5076218;28;19912;-71
2023/01/12 04:44:58;;;;;;;;;;;35.40;72.80;;;;;;5075295;28;19953;-73
2023/01/12 04:47:25;;;;;;;;;;;35.60;70.90;;;;;;5092954;28;19908;-73
2023/01/12 04:49:51;;;;;;;;;;;35.30;72.80;;;;;;5085803;28;19966;-73
2023/01/12 04:52:18;;;;;;;;;;;35.20;71.40;;;;;;5068743;28;19909;-74
2023/01/12 04:54:45;;;;;;;;;;;35.60;71.30;;;;;;5059935;28;19908;-72
2023/01/12 04:57:11;;;;;;;;;;;35.30;71.10;;;;;;5083210;28;19912;-73
2023/01/12 04:59:38;;;;;;;;;;;34.60;73.30;;;;;;5083941;28;19909;-73
2023/01/12 05:02:04;;;;;;;;;;;35.80;71.80;;;;;;5072672;28;19915;-73
2023/01/12 05:04:31;;;;;;;;;;;37.00;70.00;;;;;;5090475;28;19971;-74
2023/01/12 05:06:58;;;;;;;;;;;37.10;70.40;;;;;;5097433;28;20012;-73
2023/01/12 05:12:09;;;;;;;;;;;38.10;65.70;;;;;;5089328;28;20367;-72
2023/01/12 05:14:35;;;;;;;;;;;37.50;68.10;;;;;;5084961;28;19993;-73
2023/01/12 05:17:02;;;;;;;;;;;38.60;66.50;;;;;;5090763;28;19959;-74
2023/01/12 05:19:29;;;;;;;;;;;39.40;65.80;;;;;;5099492;28;19908;-74
2023/01/12 05:21:55;;;;;;;;;;;39.00;65.30;;;;;;5080672;28;20265;-73
2023/01/12 05:24:22;;;;;;;;;;;38.30;65.60;;;;;;5079047;28;19909;-74
2023/01/12 05:26:49;;;;;;;;;;;37.80;66.50;;;;;;5067754;28;20430;-73
2023/01/12 05:29:15;;;;;;;;;;;37.80;66.40;;;;;;5085161;28;19913;-73
2023/01/12 05:31:42;;;;;;;;;;;38.20;65.50;;;;;;5093955;28;20019;-73
2023/01/12 05:34:08;;;;;;;;;;;38.90;64.70;;;;;;5086305;28;19920;-74
2023/01/12 05:36:35;;;;;;;;;;;39.10;64.50;;;;;;5085788;28;19920;-74
2023/01/12 05:39:03;;;;;;;;;;;38.80;64.80;;;;;;5085462;28;20250;-74
2023/01/12 05:41:30;;;;;;;;;;;37.10;66.90;;;;;;5079117;28;19915;-73
2023/01/12 05:43:56;;;;;;;;;;;36.20;68.30;;;;;;5091506;28;19973;-71
2023/01/12 05:46:25;;;;;;;;;;;36.10;69.50;;;;;;5085639;28;19973;-72
2023/01/12 05:48:52;;;;;;;;;;;35.80;69.40;;;;;;5078903;28;19909;-74
2023/01/12 05:51:19;;;;;;;;;;;36.40;68.50;;;;;;5098451;28;19908;-74
2023/01/12 05:53:46;;;;;;;;;;;36.40;68.30;;;;;;5087070;28;20023;-72
2023/01/12 05:56:17;;;;;;;;;;;36.70;67.80;;;;;;5098653;28;19916;-69
2023/01/12 05:58:48;;;;;;;;;;;36.70;67.10;;;;;;5086971;28;20058;-72
2023/01/12 06:01:15;;;;;;;;;;;36.90;67.20;;;;;;5070924;28;19947;-72
2023/01/12 06:03:41;;;;;;;;;;;36.30;68.00;;;;;;5084744;28;19913;-73
2023/01/12 06:06:08;;;;;;;;;;;35.40;68.70;;;;;;5094359;28;20533;-74
2023/01/12 06:08:34;;;;;;;;;;;34.60;69.70;;;;;;5090934;28;19970;-74
2023/01/12 06:11:01;;;;;;;;;;;34.10;70.80;;;;;;5081217;28;19985;-72
2023/01/12 06:16:13;;;;;;;;;;;31.70;73.00;;;;;;5069482;28;19932;-72
2023/01/12 06:18:40;;;;;;;;;;;31.20;75.40;;;;;;5077173;28;20397;-73
2023/01/12 06:21:07;;;;;;;;;;;31.20;74.40;;;;;;5082423;28;20268;-74
2023/01/12 06:23:34;;;;;;;;;;;31.30;75.80;;;;;;5090446;28;19912;-70
2023/01/12 06:26:01;;;;;;;;;;;30.50;77.50;;;;;;5087471;28;19919;-74
2023/01/12 06:28:28;;;;;;;;;;;30.10;78.70;;;;;;5075113;28;19995;-73
2023/01/12 06:30:58;;;;;;;;;;;29.80;77.20;;;;;;5072911;28;19970;-69
2023/01/12 06:33:25;;;;;;;;;;;29.80;77.80;;;;;;5056557;28;19967;-73
2023/01/12 06:35:52;;;;;;;;;;;30.00;78.10;;;;;;5055185;28;20373;-73
2023/01/12 06:38:19;;;;;;;;;;;30.00;78.40;;;;;;5070290;28;20293;-71
2023/01/12 06:40:46;;;;;;;;;;;30.30;78.10;;;;;;5058381;28;20281;-71
2023/01/12 06:43:13;;;;;;;;;;;30.50;78.60;;;;;;5059712;28;20436;-68
2023/01/12 06:45:39;;;;;;;;;;;30.30;77.70;;;;;;5069301;28;20414;-70
2023/01/12 06:48:06;;;;;;;;;;;29.90;78.90;;;;;;5062612;28;19913;-74
2023/01/12 06:50:33;;;;;;;;;;;29.10;80.10;;;;;;5060699;28;19970;-72
2023/01/12 06:53:00;;;;;;;;;;;28.70;81.80;;;;;;5065327;28;19960;-73
2023/01/12 06:55:27;;;;;;;;;;;29.00;81.70;;;;;;5064770;28;19929;-72
2023/01/12 06:57:54;;;;;;;;;;;29.40;80.00;;;;;;5056091;28;19999;-72
2023/01/12 07:00:21;;;;;;;;;;;28.90;79.20;;;;;;5062896;28;19919;-74
2023/01/12 07:02:51;;;;;;;;;;;28.30;81.30;;;;;;5057900;28;20011;-73
2023/01/12 07:05:18;;;;;;;;;;;28.00;82.10;;;;;;5065089;28;19920;-71
2023/01/12 07:07:45;;;;;;;;;;;28.00;82.90;;;;;;5059786;28;19920;-69
2023/01/12 07:10:11;;;;;;;;;;;28.00;83.10;;;;;;5057522;28;19952;-71
2023/01/12 07:12:38;;;;;;;;;;;28.30;82.80;;;;;;5056050;28;19919;-70
2023/01/12 07:15:05;;;;;;;;;;;28.30;84.20;;;;;;5066046;28;20388;-71
2023/01/12 07:17:32;;;;;;;;;;;28.20;83.00;;;;;;5065739;28;19927;-71
2023/01/12 07:19:58;;;;;;;;;;;27.70;84.80;;;;;;5065096;28;19998;-73
2023/01/12 07:22:25;;;;;;;;;;;27.40;85.70;;;;;;5058233;28;19913;-73
2023/01/12 07:24:52;;;;;;;;;;;27.20;87.20;;;;;;5062276;28;19913;-72
2023/01/12 07:27:19;;;;;;;;;;;27.10;87.60;;;;;;5056038;28;19913;-73
2023/01/12 07:29:45;;;;;;;;;;;26.80;87.80;;;;;;5054130;28;19909;-73
2023/01/12 07:32:12;;;;;;;;;;;26.60;89.90;;;;;;5054259;28;19909;-73
2023/01/12 07:34:39;;;;;;;;;;;26.40;90.30;;;;;;5052123;28;19917;-73
2023/01/12 07:37:05;;;;;;;;;;;26.50;90.00;;;;;;5057067;28;19927;-73
2023/01/12 07:39:33;;;;;;;;;;;26.50;90.00;;;;;;5054215;28;19916;-73
2023/01/12 07:44:44;;;;;;;;;;;26.20;90.80;;;;;;5062764;28;19919;-71
2023/01/12 07:47:11;;;;;;;;;;;26.30;90.50;;;;;;5067594;28;19992;-74
2023/01/12 07:49:38;;;;;;;;;;;26.10;90.90;;;;;;5073515;28;20385;-71
2023/01/12 07:52:04;;;;;;;;;;;25.90;91.40;;;;;;5073410;28;19908;-72
2023/01/12 07:54:32;;;;;;;;;;;26.10;91.10;;;;;;5071632;28;19931;-69
2023/01/12 07:56:59;;;;;;;;;;;26.20;91.00;;;;;;5072688;28;19912;-71
2023/01/12 07:59:26;;;;;;;;;;;26.00;91.10;;;;;;5073086;28;19920;-72
2023/01/12 08:01:55;;;;;;;;;;;25.80;91.30;;;;;;5058394;28;19913;-69
2023/01/12 08:04:22;;;;;;;;;;;25.70;91.60;;;;;;5059806;28;20003;-75
2023/01/12 08:06:49;;;;;;;;;;;25.60;91.80;;;;;;5058887;28;19917;-75
2023/01/12 08:09:15;;;;;;;;;;;25.40;92.10;;;;;;5054334;28;19920;-73
2023/01/12 08:11:42;;;;;;;;;;;25.30;92.50;;;;;;5056064;28;19986;-76
2023/01/12 08:14:11;;;;;;;;;;;25.20;92.70;;;;;;5058818;28;19966;-70
2023/01/12 08:16:40;;;;;;;;;;;25.10;92.90;;;;;;5052058;28;19921;-75
2023/01/12 08:19:09;;;;;;;;;;;25.10;93.00;;;;;;5053484;28;19909;-75
2023/01/12 08:21:43;;;;;;;;;;;25.00;93.20;;;;;;5053257;28;19909;-74
2023/01/12 08:24:11;;;;;;;;;;;24.80;93.50;;;;;;5053520;28;20003;-75
2023/01/12 08:26:41;;;;;;;;;;;24.70;93.90;;;;;;5053352;28;19909;-73
2023/01/12 08:29:11;;;;;;;;;;;24.60;94.00;;;;;;5053139;28;19908;-69
2023/01/12 08:31:38;;;;;;;;;;;24.60;94.10;;;;;;5053051;28;19916;-68
2023/01/12 08:34:06;;;;;;;;;;;24.50;94.20;;;;;;5053259;28;19909;-68
2023/01/12 08:36:33;;;;;;;;;;;24.50;94.30;;;;;;5052828;28;19970;-67
2023/01/12 08:39:02;;;;;;;;;;;24.40;94.70;;;;;;5052348;28;19910;-67
2023/01/12 08:41:32;;;;;;;;;;;24.50;94.80;;;;;;5051713;28;20354;-68
2023/01/12 08:44:04;;;;;;;;;;;24.50;94.90;;;;;;5053102;28;20003;-68
2023/01/12 08:46:48;;;;;;;;;;;24.40;95.00;;;;;;5052840;28;19955;-69
2023/01/12 08:49:15;;;;;;;;;;;24.50;95.10;;;;;;5052982;28;19959;-72
2023/01/12 08:51:42;;;;;;;;;;;24.40;95.00;;;;;;5052847;28;20369;-69
2023/01/12 08:54:10;;;;;;;;;;;24.30;95.40;;;;;;5052538;28;19909;-72
2023/01/12 08:56:36;;;;;;;;;;;24.20;95.50;;;;;;5052587;28;19923;-71
2023/01/12 08:59:03;;;;;;;;;;;24.20;96.30;;;;;;5052523;28;19909;-73
2023/01/12 09:01:30;;;;;;;;;;;24.20;95.80;;;;;;5052753;28;19909;-74
2023/01/12 09:03:57;;;;;;;;;;;24.10;95.80;;;;;;5052411;28;19909;-74
2023/01/12 09:06:26;;;;;;;;;;;24.10;96.10;;;;;;5052511;28;19913;-71
2023/01/12 09:08:53;;;;;;;;;;;24.10;95.80;;;;;;5052699;28;19916;-72
2023/01/12 09:11:20;;;;;;;;;;;24.10;95.60;;;;;;5052599;28;19969;-68
2023/01/12 09:13:47;;;;;;;;;;;24.10;95.80;;;;;;5051321;28;19908;-74
2023/01/12 09:16:15;;;;;;;;;;;24.10;95.90;;;;;;5052308;28;19923;-68
2023/01/12 09:18:42;;;;;;;;;;;24.00;96.00;;;;;;5052589;28;19962;-70
2023/01/12 09:21:10;;;;;;;;;;;23.80;96.40;;;;;;5052641;28;19916;-70
2023/01/12 09:23:37;;;;;;;;;;;23.80;96.40;;;;;;5052408;28;19915;-73
2023/01/12 09:26:05;;;;;;;;;;;23.70;96.60;;;;;;5052706;28;19913;-73
2023/01/12 09:28:32;;;;;;;;;;;23.70;96.70;;;;;;5052516;28;19971;-68
2023/01/12 09:31:06;;;;;;;;;;;23.70;96.60;;;;;;5052609;28;19909;-68
2023/01/12 09:33:33;;;;;;;;;;;23.70;96.80;;;;;;5052538;28;20372;-69
2023/01/12 09:36:04;;;;;;;;;;;23.70;96.90;;;;;;5052221;28;19921;-68
2023/01/12 09:38:31;;;;;;;;;;;23.80;96.70;;;;;;5052471;28;20378;-70
2023/01/12 09:40:59;;;;;;;;;;;23.90;96.70;;;;;;5052338;28;19909;-72
2023/01/12 09:49:11;;;;;;;;;;;23.70;97.30;;;;;;5052693;28;19916;-73
2023/01/12 09:51:43;;;;;;;;;;;23.70;97.20;;;;;;5056376;28;19909;-72
2023/01/12 09:54:10;;;;;;;;;;;23.60;97.40;;;;;;5056106;28;20468;-70
2023/01/12 09:56:51;;;;;;;;;;;23.60;97.40;;;;;;5056430;28;20446;-75
2023/01/12 09:59:17;;;;;;;;;;;23.60;97.60;;;;;;5060304;28;19944;-73
2023/01/12 10:01:44;;;;;;;;;;;23.60;97.70;;;;;;5057771;28;20420;-71
2023/01/12 10:04:11;;;;;;;;;;;23.60;97.50;;;;;;5056082;28;19909;-73
2023/01/12 10:06:38;;;;;;;;;;;23.60;97.70;;;;;;5055843;28;19935;-68
2023/01/12 10:09:09;;;;;;;;;;;23.50;97.90;;;;;;5056103;28;19908;-69
2023/01/12 10:11:38;;;;;;;;;;;23.60;97.90;;;;;;5055891;28;19909;-69
2023/01/12 10:14:14;;;;;;;;;;;23.60;97.90;;;;;;5055834;28;19915;-69
2023/01/12 10:16:50;;;;;;;;;;;23.60;97.60;;;;;;5055564;28;20015;-72
2023/01/12 10:19:21;;;;;;;;;;;23.60;97.90;;;;;;5055894;28;19916;-68
2023/01/12 10:21:50;;;;;;;;;;;23.60;97.80;;;;;;5055609;28;19915;-69
2023/01/12 10:24:20;;;;;;;;;;;23.60;97.90;;;;;;5055623;28;19967;-68
2023/01/12 10:26:50;;;;;;;;;;;23.40;98.00;;;;;;5055382;28;19916;-68
2023/01/12 10:29:16;;;;;;;;;;;23.40;98.20;;;;;;5055435;28;20365;-71
2023/01/12 10:31:43;;;;;;;;;;;23.30;98.40;;;;;;5055468;28;20388;-70
2023/01/12 10:34:11;;;;;;;;;;;23.20;98.80;;;;;;5055298;28;19916;-69
2023/01/12 10:36:52;;;;;;;;;;;23.20;98.70;;;;;;5055054;28;20012;-69
2023/01/12 10:39:27;;;;;;;;;;;23.20;98.70;;;;;;5055073;28;19931;-70
2023/01/12 10:43:17;;;;;;;;;;;23.10;98.80;;;;;;5055103;28;19924;-70
2023/01/12 10:45:14;;;;;;;;;;;23.10;98.80;;;;;;5054936;28;20011;-71
2023/01/12 10:47:41;;;;;;;;;;;23.10;99.00;;;;;;5054891;28;19970;-68
2023/01/12 10:50:18;;;;;;;;;;;23.10;99.20;;;;;;5055194;28;20330;-69
2023/01/12 10:52:45;;;;;;;;;;;23.10;99.20;;;;;;5054637;28;19908;-72
2023/01/12 10:55:22;;;;;;;;;;;23.10;99.10;;;;;;5054904;28;19916;-73
2023/01/12 10:57:49;;;;;;;;;;;23.10;99.30;;;;;;5054890;28;19909;-68
2023/01/12 11:00:21;;;;;;;;;;;23.10;99.30;;;;;;5054416;28;19913;-71
2023/01/12 11:02:48;;;;;;;;;;;23.10;99.50;;;;;;5053874;28;19950;-68
2023/01/12 11:05:32;;;;;;;;;;;23.10;99.50;;;;;;5054861;28;20384;-71
2023/01/12 11:08:00;;;;;;;;;;;23.10;99.50;;;;;;5054529;28;19988;-68
2023/01/12 11:10:26;;;;;;;;;;;23.20;99.70;;;;;;5054396;28;19913;-73
2023/01/12 11:12:59;;;;;;;;;;;23.20;99.80;;;;;;5054530;28;19909;-71
2023/01/12 11:15:27;;;;;;;;;;;23.20;99.30;;;;;;5054089;28;19916;-72
2023/01/12 11:17:55;;;;;;;;;;;23.10;99.50;;;;;;5054338;28;20015;-68
2023/01/12 11:20:27;;;;;;;;;;;23.10;99.80;;;;;;5054199;28;19954;-71
2023/01/12 11:22:55;;;;;;;;;;;23.10;99.80;;;;;;5054341;28;20015;-74
2023/01/12 11:25:23;;;;;;;;;;;23.10;99.70;;;;;;5054353;28;19916;-74
2023/01/12 11:28:08;;;;;;;;;;;23.10;99.70;;;;;;5054218;28;19908;-71
2023/01/12 11:30:44;;;;;;;;;;;23.10;99.90;;;;;;5054292;28;20007;-72
2023/01/12 11:33:24;;;;;;;;;;;23.10;99.90;;;;;;5054253;28;19916;-73
2023/01/12 11:35:59;;;;;;;;;;;23.10;99.90;;;;;;5054003;28;20008;-69
2023/01/12 11:38:29;;;;;;;;;;;23.10;99.90;;;;;;5054089;28;19968;-68
2023/01/12 11:40:57;;;;;;;;;;;23.20;99.90;;;;;;5054007;28;19916;-69
2023/01/12 11:43:48;;;;;;;;;;;23.20;99.90;;;;;;5053880;28;19995;-68
2023/01/12 11:46:14;;;;;;;;;;;23.10;99.90;;;;;;5053677;28;20378;-69
2023/01/12 11:48:53;;;;;;;;;;;23.10;99.90;;;;;;5054385;28;19995;-68
2023/01/12 11:51:19;;;;;;;;;;;23.10;99.90;;;;;;5053931;28;19909;-68
2023/01/12 11:53:46;;;;;;;;;;;23.10;99.90;;;;;;5053657;28;20026;-68
2023/01/12 11:56:28;;;;;;;;;;;23.10;99.90;;;;;;5053859;28;19920;-68
2023/01/12 11:59:14;;;;;;;;;;;23.10;99.90;;;;;;5053599;28;19912;-67
2023/01/12 12:01:52;;;;;;;;;;;23.10;99.90;;;;;;5053461;28;20370;-69
2023/01/12 12:04:33;;;;;;;;;;;23.10;99.90;;;;;;5053639;28;19916;-68
2023/01/12 12:07:03;;;;;;;;;;;22.90;99.90;;;;;;5053413;28;19909;-68
2023/01/12 12:09:42;;;;;;;;;;;22.90;99.90;;;;;;5053528;28;19909;-68
2023/01/12 12:12:24;;;;;;;;;;;22.90;99.90;;;;;;5053331;28;19916;-69
2023/01/12 12:15:11;;;;;;;;;;;22.90;99.90;;;;;;5053319;28;19916;-70
2023/01/12 12:18:00;;;;;;;;;;;22.90;99.90;;;;;;5052393;28;19920;-67
2023/01/12 12:20:31;;;;;;;;;;;22.90;99.90;;;;;;5052762;28;19919;-68
2023/01/12 12:23:10;;;;;;;;;;;22.90;99.90;;;;;;5053277;28;19909;-67
2023/01/12 12:25:49;;;;;;;;;;;23.00;99.90;;;;;;5052020;28;19912;-70
2023/01/12 12:28:21;;;;;;;;;;;23.00;99.90;;;;;;5053432;28;20369;-73
2023/01/12 12:30:52;;;;;;;;;;;23.00;99.90;;;;;;5053319;28;19916;-70
2023/01/12 12:33:22;;;;;;;;;;;23.00;99.90;;;;;;5053138;28;20281;-70
2023/01/12 12:35:48;;;;;;;;;;;23.10;99.90;;;;;;5053081;28;19916;-70
2023/01/12 12:38:26;;;;;;;;;;;23.10;99.90;;;;;;5053375;28;19921;-73
2023/01/12 12:46:32;;;;;;;;;;;23.00;99.90;;;;;;5053266;28;19915;-72
2023/01/12 12:49:03;;;;;;;;;;;23.00;99.90;;;;;;5052893;28;19916;-73
2023/01/12 12:51:31;;;;;;;;;;;23.00;99.90;;;;;;5052579;28;19920;-71
2023/01/12 12:54:01;;;;;;;;;;;23.00;99.90;;;;;;5052806;28;19916;-69
2023/01/12 12:56:29;;;;;;;;;;;23.00;99.90;;;;;;5052747;28;19981;-70
2023/01/12 12:58:56;;;;;;;;;;;23.00;99.90;;;;;;5052897;28;19916;-69
2023/01/12 13:01:23;;;;;;;;;;;23.00;99.90;;;;;;5052740;28;19999;-69
2023/01/12 13:03:50;;;;;;;;;;;23.00;99.90;;;;;;5052795;28;19944;-69
2023/01/12 13:06:28;;;;;;;;;;;23.00;99.90;;;;;;5052693;28;19955;-71
2023/01/12 13:08:56;;;;;;;;;;;23.00;99.90;;;;;;5052692;28;19909;-71
2023/01/12 13:11:41;;;;;;;;;;;23.00;99.90;;;;;;5052604;28;19916;-68
2023/01/12 13:14:20;;;;;;;;;;;23.00;99.90;;;;;;5052776;28;19995;-70
2023/01/12 13:16:50;;;;;;;;;;;23.00;99.90;;;;;;5052612;28;19917;-70
2023/01/12 13:19:35;;;;;;;;;;;23.10;99.90;;;;;;5052669;28;20410;-71
2023/01/12 13:22:20;;;;;;;;;;;23.00;99.90;;;;;;5052628;28;19908;-72
2023/01/12 13:24:46;;;;;;;;;;;23.00;99.90;;;;;;5053859;28;20335;-71
2023/01/12 13:27:31;;;;;;;;;;;22.90;99.90;;;;;;5056435;28;19909;-70
2023/01/12 13:30:16;;;;;;;;;;;22.90;99.90;;;;;;5055143;28;19993;-71
2023/01/12 13:32:49;;;;;;;;;;;22.90;99.90;;;;;;5056566;28;19909;-70
2023/01/12 13:35:23;;;;;;;;;;;22.90;99.90;;;;;;5056548;28;19909;-74
2023/01/12 13:37:54;;;;;;;;;;;22.90;99.90;;;;;;5056333;28;19974;-74
2023/01/12 13:40:28;;;;;;;;;;;22.90;99.90;;;;;;5056483;28;19917;-73
2023/01/12 13:43:14;;;;;;;;;;;22.90;99.90;;;;;;5056450;28;19912;-73
2023/01/12 13:46:07;;;;;;;;;;;23.00;99.90;;;;;;5056090;28;20338;-73
2023/01/12 13:48:34;;;;;;;;;;;23.00;99.90;;;;;;5055084;28;19912;-73
2023/01/12 13:51:04;;;;;;;;;;;23.00;99.90;;;;;;5056368;28;19909;-73
2023/01/12 13:53:31;;;;;;;;;;;22.90;99.90;;;;;;5057489;28;19915;-73
2023/01/12 13:56:02;;;;;;;;;;;22.80;99.90;;;;;;5057501;28;20007;-72
2023/01/12 13:58:36;;;;;;;;;;;22.80;99.90;;;;;;5056242;28;19932;-70
2023/01/12 14:01:05;;;;;;;;;;;22.80;99.90;;;;;;5055803;28;19992;-71
2023/01/12 14:03:50;;;;;;;;;;;22.80;99.90;;;;;;5055962;28;19916;-69
2023/01/12 14:06:17;;;;;;;;;;;22.80;99.90;;;;;;5055728;28;19954;-72
2023/01/12 14:08:58;;;;;;;;;;;22.80;99.90;;;;;;5055753;28;20777;-71
2023/01/12 14:11:35;;;;;;;;;;;22.80;99.90;;;;;;5055704;28;19913;-69
2023/01/12 14:19:48;;;;;;;;;;;22.90;99.90;;;;;;5056014;28;20380;-70
2023/01/12 14:22:19;;;;;;;;;;;22.90;99.90;;;;;;5055507;28;19967;-73
2023/01/12 14:24:46;;;;;;;;;;;23.00;99.90;;;;;;5055294;28;20262;-71
2023/01/12 14:27:16;;;;;;;;;;;23.00;99.90;;;;;;5055360;28;19915;-72
2023/01/12 14:29:43;;;;;;;;;;;23.00;99.90;;;;;;5055242;28;19916;-72
2023/01/12 14:32:12;;;;;;;;;;;23.00;99.90;;;;;;5055307;28;19991;-71
2023/01/12 14:34:45;;;;;;;;;;;22.90;99.90;;;;;;5055541;28;19955;-72
2023/01/12 14:37:38;;;;;;;;;;;22.90;99.90;;;;;;5053832;28;20301;-71
2023/01/12 14:40:05;;;;;;;;;;;22.90;99.90;;;;;;5054906;28;19963;-71
2023/01/12 14:48:24;;;;;;;;;;;22.80;99.90;;;;;;5055085;28;19966;-71
2023/01/12 14:51:00;;;;;;;;;;;22.80;99.90;;;;;;5055456;28;20350;-72
2023/01/12 14:53:34;;;;;;;;;;;22.80;99.90;;;;;;5054932;28;20396;-71
2023/01/12 14:56:15;;;;;;;;;;;22.80;99.90;;;;;;5054821;28;20365;-72
2023/01/12 14:58:43;;;;;;;;;;;22.80;99.90;;;;;;5054987;28;19916;-71
2023/01/12 15:01:10;;;;;;;;;;;22.80;99.90;;;;;;5054998;28;19909;-71
2023/01/12 15:03:36;;;;;;;;;;;22.80;99.90;;;;;;5054672;28;19944;-71
2023/01/12 15:06:03;;;;;;;;;;;22.80;99.90;;;;;;5054522;28;19909;-71
2023/01/12 15:08:30;;;;;;;;;;;22.80;99.90;;;;;;5054653;28;19963;-71
2023/01/12 15:10:58;;;;;;;;;;;22.70;99.90;;;;;;5054852;28;19915;-71
2023/01/12 15:13:25;;;;;;;;;;;22.60;99.90;;;;;;5054598;28;19955;-72
2023/01/12 15:27:03;;;;;;;;;;;22.40;99.90;;;;;;5054181;28;19916;-68
2023/01/12 15:29:30;;;;;;;;;;;22.30;99.90;;;;;;5054316;28;20358;-68